Time;durP1;ratioP1;P1;durP2;ratioP2;P2;SDS_P1;SDS_P2;PMS_P1;PMS_P2;Temp;Humidity;BMP_temperature;BMP_pressure;BME280_temperature;BME280_humidity;BME280_pressure;Samples;Min_cycle;Max_cycle;Signal;HPM_P1;HPM_P2
2021/10/31 00:01:23;;;;;;;17.40;9.43;;;12.10;73.00;12.20;100090.00;;;;4952374;28;104205;-67
2021/10/31 00:03:50;;;;;;;10.80;7.27;;;12.20;73.20;12.20;100096.00;;;;4938359;28;88110;-67
2021/10/31 00:06:15;;;;;;;12.63;9.47;;;12.10;73.20;12.10;100096.00;;;;4938834;28;95906;-68
2021/10/31 00:08:41;;;;;;;15.47;9.23;;;12.10;73.20;12.10;100092.00;;;;4936707;28;108687;-69
2021/10/31 00:11:07;;;;;;;15.30;9.10;;;12.10;73.40;12.10;100089.00;;;;4937161;28;115894;-68
2021/10/31 00:13:33;;;;;;;14.03;9.23;;;12.10;73.50;12.10;100091.00;;;;4951378;28;88771;-67
2021/10/31 00:15:59;;;;;;;12.17;8.13;;;12.00;73.50;12.10;100107.00;;;;4937380;28;87824;-68
2021/10/31 00:18:25;;;;;;;13.23;8.50;;;12.00;73.60;12.10;100094.00;;;;4936236;28;109062;-69
2021/10/31 00:20:51;;;;;;;13.03;8.70;;;12.00;73.80;12.10;100100.00;;;;4936696;28;116188;-68
2021/10/31 00:23:17;;;;;;;14.97;9.53;;;12.00;73.90;12.00;100099.00;;;;4936955;28;117506;-68
2021/10/31 00:25:43;;;;;;;11.17;8.30;;;12.00;74.00;12.10;100104.00;;;;4936919;28;110391;-67
2021/10/31 00:28:09;;;;;;;15.33;10.67;;;12.00;74.10;12.10;100105.00;;;;4936861;28;108368;-67
2021/10/31 00:30:34;;;;;;;13.90;8.73;;;12.00;74.10;12.00;100111.00;;;;4936877;28;102835;-67
2021/10/31 00:33:00;;;;;;;20.07;10.53;;;12.00;74.20;12.00;100111.00;;;;4935331;28;116914;-67
2021/10/31 00:35:26;;;;;;;13.27;9.07;;;12.00;74.40;12.00;100121.00;;;;4936191;28;111695;-66
2021/10/31 00:37:51;;;;;;;11.47;8.87;;;12.00;74.50;12.00;100107.00;;;;4935379;28;109430;-67
2021/10/31 00:40:17;;;;;;;15.13;8.80;;;11.90;74.70;11.90;100108.00;;;;4936456;28;117016;-67
2021/10/31 00:42:43;;;;;;;13.43;9.43;;;11.90;74.90;11.90;100117.00;;;;4937790;28;87968;-68
2021/10/31 00:45:09;;;;;;;13.80;9.47;;;11.90;75.20;11.90;100109.00;;;;4937164;28;103410;-67
2021/10/31 00:47:35;;;;;;;16.00;9.43;;;11.90;75.30;11.80;100120.00;;;;4934797;28;107064;-68
2021/10/31 00:50:01;;;;;;;13.20;9.20;;;11.80;75.60;11.80;100116.00;;;;4936692;28;104438;-66
2021/10/31 00:52:28;;;;;;;13.90;9.20;;;11.80;76.00;11.80;100112.00;;;;4951706;28;87725;-67
2021/10/31 00:54:55;;;;;;;14.67;9.47;;;11.70;76.50;11.70;100111.00;;;;4951740;28;91962;-67
2021/10/31 00:57:21;;;;;;;14.27;8.77;;;11.70;76.70;11.70;100114.00;;;;4936969;28;87883;-67
2021/10/31 00:59:46;;;;;;;14.00;9.27;;;11.70;77.00;11.70;100113.00;;;;4936807;28;99887;-68
2021/10/31 01:02:14;;;;;;;14.50;8.97;;;11.70;77.20;11.70;100117.00;;;;4935801;28;109850;-67
2021/10/31 01:04:45;;;;;;;15.57;9.70;;;11.70;77.40;11.80;100111.00;;;;4918586;28;87554;-68
2021/10/31 01:07:34;;;;;;;12.57;9.20;;;11.70;77.60;11.80;100109.00;;;;4934113;28;88131;-66
2021/10/31 01:10:11;;;;;;;12.57;8.17;;;11.70;77.60;11.90;100104.00;;;;4937486;28;87890;-67
2021/10/31 01:13:25;;;;;;;15.37;9.40;;;11.80;77.60;11.90;100111.00;;;;4934595;28;105338;-68
2021/10/31 01:16:11;;;;;;;12.40;9.03;;;11.90;77.70;11.90;100108.00;;;;4924002;28;88013;-67
2021/10/31 01:19:02;;;;;;;17.87;9.70;;;11.90;77.60;12.00;100107.00;;;;4936524;28;87570;-67
2021/10/31 01:21:57;;;;;;;12.43;9.17;;;11.90;77.60;12.00;100107.00;;;;4937181;28;87636;-67
2021/10/31 01:24:56;;;;;;;13.03;9.03;;;11.80;77.30;12.00;100118.00;;;;4937317;28;88068;-68
2021/10/31 01:27:48;;;;;;;15.83;9.13;;;12.00;77.40;12.00;100122.00;;;;4936854;28;87927;-67
2021/10/31 01:30:31;;;;;;;12.80;7.47;;;12.00;77.50;12.00;100128.00;;;;4951023;28;88951;-68
2021/10/31 01:33:06;;;;;;;14.80;9.03;;;11.90;77.50;12.10;100125.00;;;;4936361;28;88015;-68
2021/10/31 01:36:10;;;;;;;17.77;10.30;;;12.00;77.70;12.00;100122.00;;;;4951398;28;93717;-68
2021/10/31 01:39:28;;;;;;;19.03;10.67;;;12.00;77.80;12.00;100131.00;;;;4935984;28;87791;-68
2021/10/31 01:42:03;;;;;;;14.60;10.27;;;12.00;78.00;12.00;100131.00;;;;4949898;28;88056;-67
2021/10/31 01:45:13;;;;;;;16.37;9.07;;;12.00;78.20;11.90;100136.00;;;;4916671;28;89300;-67
2021/10/31 01:48:13;;;;;;;14.90;10.17;;;11.90;78.50;11.90;100130.00;;;;4915284;28;88152;-67
2021/10/31 01:50:45;;;;;;;16.07;9.77;;;11.90;78.90;11.80;100128.00;;;;4915264;28;87119;-68
2021/10/31 01:53:56;;;;;;;13.40;9.63;;;11.80;79.40;11.80;100133.00;;;;4924561;28;87711;-68
2021/10/31 01:56:24;;;;;;;14.93;10.00;;;11.80;80.00;11.80;100131.00;;;;4951477;28;88360;-67
2021/10/31 01:59:03;;;;;;;18.27;9.80;;;11.80;80.30;11.70;100134.00;;;;4949497;28;100269;-68
2021/10/31 02:01:33;;;;;;;15.37;9.90;;;11.70;80.80;11.70;100139.00;;;;4933403;28;104311;-68
2021/10/31 02:04:10;;;;;;;14.70;10.27;;;11.70;81.20;11.60;100130.00;;;;4936920;28;87787;-67
2021/10/31 02:06:42;;;;;;;16.77;11.13;;;11.70;81.80;11.60;100138.00;;;;4935937;28;88104;-67
2021/10/31 02:09:08;;;;;;;17.43;10.87;;;11.70;82.20;11.60;100134.00;;;;4934753;28;105374;-67
2021/10/31 02:11:36;;;;;;;15.93;10.30;;;11.60;82.60;11.60;100135.00;;;;4950073;28;96889;-67
2021/10/31 02:14:05;;;;;;;17.80;11.80;;;11.60;83.00;11.60;100134.00;;;;4950658;28;88003;-69
2021/10/31 02:16:33;;;;;;;15.00;10.40;;;11.60;83.20;11.60;100137.00;;;;4950375;28;105443;-67
2021/10/31 02:19:04;;;;;;;18.60;9.53;;;11.60;83.50;11.60;100137.00;;;;4949929;28;95178;-67
2021/10/31 02:21:35;;;;;;;16.73;10.63;;;11.60;83.50;11.60;100133.00;;;;4950345;28;87611;-67
2021/10/31 02:24:03;;;;;;;14.87;10.43;;;11.60;84.10;11.60;100147.00;;;;4919067;28;89836;-67
2021/10/31 02:26:29;;;;;;;16.40;11.43;;;11.60;84.10;11.60;100137.00;;;;4913372;28;87715;-68
2021/10/31 02:29:01;;;;;;;19.37;11.27;;;11.60;84.30;11.70;100142.00;;;;4932125;28;88655;-68
2021/10/31 02:31:28;;;;;;;14.03;9.07;;;11.60;84.50;11.70;100145.00;;;;4935463;28;87750;-68
2021/10/31 02:33:55;;;;;;;17.37;11.17;;;11.60;84.60;11.80;100141.00;;;;4950110;28;87752;-67
2021/10/31 02:36:21;;;;;;;15.43;9.73;;;11.70;84.50;11.80;100146.00;;;;4935982;28;89073;-67
2021/10/31 02:38:47;;;;;;;13.27;10.43;;;11.70;84.30;11.80;100152.00;;;;4934448;28;117760;-67
2021/10/31 02:41:13;;;;;;;15.23;11.20;;;11.80;84.40;11.80;100149.00;;;;4936573;28;87227;-66
2021/10/31 02:43:39;;;;;;;18.97;11.77;;;11.80;84.40;11.80;100146.00;;;;4935173;28;87903;-71
2021/10/31 02:46:05;;;;;;;18.53;12.73;;;11.80;84.30;11.90;100151.00;;;;4949987;28;87785;-69
2021/10/31 02:48:31;;;;;;;15.97;10.70;;;11.80;84.30;11.90;100154.00;;;;4934482;28;88937;-67
2021/10/31 02:51:53;;;;;;;18.80;10.60;;;11.80;84.20;11.80;100156.00;;;;4935452;28;87847;-67
2021/10/31 02:54:51;;;;;;;15.10;10.17;;;11.80;84.10;11.80;100156.00;;;;4914867;28;101389;-68
2021/10/31 02:57:31;;;;;;;17.47;10.40;;;11.80;84.10;11.80;100155.00;;;;4935414;28;87710;-67
2021/10/31 03:00:04;;;;;;;18.70;11.50;;;11.80;84.10;11.80;100168.00;;;;4950829;28;87781;-68
2021/10/31 03:02:31;;;;;;;20.13;12.13;;;11.80;84.10;11.80;100171.00;;;;4935853;28;87803;-67
2021/10/31 03:04:58;;;;;;;18.93;10.73;;;11.80;84.30;11.80;100162.00;;;;4938341;28;89481;-68
2021/10/31 03:07:25;;;;;;;16.30;12.27;;;11.80;84.30;11.80;100169.00;;;;4938779;28;87414;-68
2021/10/31 03:09:50;;;;;;;24.47;12.30;;;11.80;84.50;11.80;100159.00;;;;4952430;28;87753;-67
2021/10/31 03:12:18;;;;;;;15.63;9.47;;;11.80;85.00;11.80;100164.00;;;;4938747;28;87793;-67
2021/10/31 03:14:44;;;;;;;18.93;11.87;;;11.80;84.80;11.80;100162.00;;;;4939079;28;88751;-67
2021/10/31 03:17:10;;;;;;;18.77;12.50;;;11.70;85.00;11.80;100163.00;;;;4952890;28;88380;-67
2021/10/31 03:19:36;;;;;;;18.67;10.93;;;11.80;85.00;11.80;100148.00;;;;4936712;28;116424;-67
2021/10/31 03:22:04;;;;;;;15.33;11.53;;;11.80;85.40;11.80;100154.00;;;;4938633;28;87742;-66
2021/10/31 03:24:30;;;;;;;15.97;11.30;;;11.80;85.60;11.80;100153.00;;;;4938154;28;87797;-67
2021/10/31 03:26:55;;;;;;;16.23;10.67;;;11.80;85.80;11.80;100162.00;;;;4937392;28;117144;-67
2021/10/31 03:29:24;;;;;;;18.87;10.00;;;11.80;86.00;11.80;100160.00;;;;4937019;28;116835;-67
2021/10/31 03:31:51;;;;;;;23.43;12.30;;;11.80;86.90;11.80;100159.00;;;;4938009;28;86830;-67
2021/10/31 03:34:17;;;;;;;17.40;10.57;;;11.70;86.10;11.90;100165.00;;;;4938168;28;87747;-68
2021/10/31 03:36:42;;;;;;;20.07;12.43;;;11.80;86.30;11.80;100163.00;;;;4936228;28;118740;-67
2021/10/31 03:39:08;;;;;;;14.73;10.67;;;11.80;86.50;11.80;100164.00;;;;4936724;28;112859;-67
2021/10/31 03:41:34;;;;;;;19.77;12.07;;;11.80;86.80;11.80;100169.00;;;;4938140;28;87550;-67
2021/10/31 03:44:00;;;;;;;14.93;9.73;;;11.80;86.90;11.90;100174.00;;;;4937526;28;87743;-67
2021/10/31 03:46:26;;;;;;;16.73;10.30;;;11.80;86.80;11.90;100174.00;;;;4938882;28;88079;-68
2021/10/31 03:48:52;;;;;;;16.03;11.33;;;11.80;86.90;11.90;100174.00;;;;4937905;28;88114;-67
2021/10/31 03:51:19;;;;;;;17.17;11.27;;;11.80;87.00;11.90;100175.00;;;;4937387;28;90816;-68
2021/10/31 03:53:44;;;;;;;17.60;10.90;;;11.80;87.10;11.90;100168.00;;;;4938109;28;87694;-67
2021/10/31 03:56:10;;;;;;;17.67;10.53;;;11.80;87.00;11.90;100177.00;;;;4917968;28;117292;-67
2021/10/31 03:58:36;;;;;;;20.20;12.13;;;11.90;87.20;12.00;100178.00;;;;4931030;28;96317;-67
2021/10/31 04:01:01;;;;;;;19.63;10.73;;;11.90;87.00;12.00;100174.00;;;;4936264;28;114259;-68
2021/10/31 04:03:28;;;;;;;14.70;9.83;;;11.90;87.00;12.00;100174.00;;;;4935929;28;107441;-68
2021/10/31 04:05:53;;;;;;;18.27;10.77;;;11.90;86.90;12.00;100166.00;;;;4938087;28;89043;-67
2021/10/31 04:08:19;;;;;;;15.93;11.27;;;12.00;86.70;12.00;100177.00;;;;4936404;28;118013;-67
2021/10/31 04:10:45;;;;;;;18.40;11.53;;;12.00;86.50;12.00;100180.00;;;;4936065;28;112347;-67
2021/10/31 04:13:10;;;;;;;16.17;10.67;;;12.00;86.40;12.00;100192.00;;;;4937455;28;91114;-68
2021/10/31 04:15:36;;;;;;;22.83;11.90;;;12.00;86.30;12.00;100184.00;;;;4936476;28;117191;-67
2021/10/31 04:18:03;;;;;;;19.80;11.93;;;11.90;86.20;11.90;100191.00;;;;4936907;28;87836;-67
2021/10/31 04:20:28;;;;;;;21.70;12.50;;;11.90;86.30;11.90;100183.00;;;;4937098;28;97706;-69
2021/10/31 04:22:54;;;;;;;17.80;11.97;;;11.90;86.40;11.90;100185.00;;;;4937502;28;87971;-69
2021/10/31 04:25:20;;;;;;;16.40;10.97;;;11.90;86.60;11.80;100188.00;;;;4935383;28;116243;-67
2021/10/31 04:27:46;;;;;;;18.00;11.60;;;11.80;86.70;11.80;100185.00;;;;4935556;28;119198;-67
2021/10/31 04:30:15;;;;;;;19.10;11.40;;;11.50;86.70;11.80;100186.00;;;;4937159;28;87930;-67
2021/10/31 04:32:41;;;;;;;18.17;12.23;;;11.70;87.00;11.70;100189.00;;;;4936733;28;87849;-68
2021/10/31 04:35:07;;;;;;;12.33;10.30;;;11.70;87.20;11.70;100182.00;;;;4936710;28;88218;-67
2021/10/31 04:37:36;;;;;;;23.87;13.73;;;11.70;87.40;11.70;100197.00;;;;4935894;28;87983;-68
2021/10/31 04:40:04;;;;;;;16.57;11.50;;;11.70;87.60;11.60;100190.00;;;;4937073;28;87554;-67
2021/10/31 04:42:32;;;;;;;16.53;10.93;;;11.60;87.90;11.60;100190.00;;;;4935474;28;87767;-68
2021/10/31 04:44:58;;;;;;;15.63;11.23;;;11.60;88.30;11.60;100193.00;;;;4936985;28;88087;-68
2021/10/31 04:47:24;;;;;;;17.60;12.17;;;11.50;88.60;11.50;100191.00;;;;4937264;28;88041;-69
2021/10/31 04:49:50;;;;;;;18.80;11.80;;;11.50;88.90;11.50;100194.00;;;;4951527;28;88039;-68
2021/10/31 04:52:16;;;;;;;20.50;11.37;;;11.50;89.00;11.50;100188.00;;;;4935516;28;107424;-68
2021/10/31 04:54:42;;;;;;;19.07;12.07;;;11.50;89.20;11.50;100189.00;;;;4935914;28;88896;-68
2021/10/31 04:57:08;;;;;;;21.43;12.13;;;11.50;89.60;11.40;100197.00;;;;4936933;28;87895;-68
2021/10/31 04:59:34;;;;;;;19.10;11.63;;;11.40;89.80;11.40;100191.00;;;;4935712;28;113552;-68
2021/10/31 05:02:00;;;;;;;17.73;12.63;;;11.40;90.00;11.40;100190.00;;;;4936210;28;87596;-68
2021/10/31 05:04:26;;;;;;;13.27;11.30;;;11.40;90.00;11.40;100189.00;;;;4936455;28;91798;-68
2021/10/31 05:06:52;;;;;;;19.50;12.43;;;11.40;90.00;11.30;100192.00;;;;4935443;28;118342;-68
2021/10/31 05:09:18;;;;;;;21.23;12.80;;;11.30;90.10;11.30;100188.00;;;;4936270;28;112310;-68
2021/10/31 05:11:44;;;;;;;17.77;10.83;;;11.30;90.20;11.30;100187.00;;;;4951118;28;87548;-68
2021/10/31 05:14:10;;;;;;;21.30;13.73;;;11.30;90.30;11.30;100180.00;;;;4935934;28;92911;-68
2021/10/31 05:16:37;;;;;;;20.30;13.10;;;11.20;90.30;11.20;100173.00;;;;4934764;28;117790;-68
2021/10/31 05:19:04;;;;;;;17.67;12.40;;;11.20;90.40;11.20;100186.00;;;;4936566;28;87693;-69
2021/10/31 05:21:30;;;;;;;21.27;13.00;;;11.20;90.50;11.20;100190.00;;;;4950798;28;87633;-68
2021/10/31 05:23:56;;;;;;;19.27;12.37;;;11.20;90.60;11.20;100180.00;;;;4936100;28;89399;-68
2021/10/31 05:26:23;;;;;;;25.83;14.27;;;11.20;90.70;11.20;100180.00;;;;4936158;28;88591;-68
2021/10/31 05:28:49;;;;;;;18.40;12.97;;;11.20;90.80;11.20;100175.00;;;;4935974;28;96203;-70
2021/10/31 05:31:15;;;;;;;18.30;12.07;;;11.20;90.80;11.10;100183.00;;;;4951167;28;87840;-68
2021/10/31 05:33:41;;;;;;;15.53;11.13;;;11.10;90.80;11.10;100187.00;;;;4934829;28;114912;-68
2021/10/31 05:36:07;;;;;;;17.20;11.90;;;11.10;90.90;11.10;100199.00;;;;4936345;28;87853;-68
2021/10/31 05:38:32;;;;;;;25.13;13.73;;;11.10;90.90;11.10;100196.00;;;;4936405;28;87794;-68
2021/10/31 05:40:58;;;;;;;16.50;12.87;;;11.10;91.10;11.00;100186.00;;;;4935050;28;89704;-69
2021/10/31 05:43:24;;;;;;;19.73;13.47;;;11.00;91.20;11.00;100201.00;;;;4935962;28;90060;-68
2021/10/31 05:45:50;;;;;;;19.37;13.60;;;11.10;91.40;11.00;100192.00;;;;4935341;28;100860;-68
2021/10/31 05:48:16;;;;;;;19.40;12.63;;;11.00;91.40;11.00;100193.00;;;;4935752;28;87685;-67
2021/10/31 05:50:42;;;;;;;18.33;11.67;;;11.00;91.50;11.00;100187.00;;;;4936142;28;87771;-68
2021/10/31 05:53:08;;;;;;;18.33;11.70;;;11.00;91.40;11.00;100186.00;;;;4949663;28;116992;-68
2021/10/31 05:55:34;;;;;;;18.70;13.57;;;11.00;91.50;11.00;100176.00;;;;4936106;28;88219;-67
2021/10/31 05:58:00;;;;;;;20.97;13.17;;;11.00;91.50;11.10;100180.00;;;;4934996;28;113178;-67
2021/10/31 06:00:25;;;;;;;22.60;13.07;;;11.00;91.50;11.10;100198.00;;;;4935007;28;109628;-69
2021/10/31 06:02:51;;;;;;;21.43;13.07;;;11.00;91.50;11.10;100188.00;;;;4948954;28;117388;-69
2021/10/31 06:05:18;;;;;;;20.93;12.67;;;11.00;91.50;11.00;100196.00;;;;4934476;28;117585;-68
2021/10/31 06:07:44;;;;;;;23.87;13.07;;;11.00;91.50;11.00;100196.00;;;;4935340;28;87630;-67
2021/10/31 06:10:11;;;;;;;19.13;13.40;;;11.00;91.60;11.00;100196.00;;;;4935678;28;87953;-66
2021/10/31 06:12:43;;;;;;;21.20;12.70;;;10.90;91.70;11.00;100201.00;;;;4935376;28;98250;-67
2021/10/31 06:15:09;;;;;;;19.00;12.00;;;11.00;91.90;11.00;100207.00;;;;4935279;28;88845;-68
2021/10/31 06:17:34;;;;;;;19.33;12.73;;;10.90;92.00;11.00;100203.00;;;;4935482;28;88052;-66
2021/10/31 06:20:00;;;;;;;16.97;11.27;;;10.90;92.10;10.90;100205.00;;;;4935346;28;106394;-69
2021/10/31 06:22:26;;;;;;;23.77;14.37;;;10.90;92.20;10.90;100200.00;;;;4935141;28;88229;-66
2021/10/31 06:24:52;;;;;;;20.97;12.63;;;10.90;92.30;10.90;100200.00;;;;4934317;28;114982;-67
2021/10/31 06:27:17;;;;;;;19.60;12.27;;;10.90;92.40;10.90;100198.00;;;;4949043;28;87872;-69
2021/10/31 06:29:43;;;;;;;20.47;12.77;;;10.90;92.40;11.00;100201.00;;;;4945816;28;107588;-67
2021/10/31 06:32:09;;;;;;;18.77;12.03;;;10.90;92.50;11.00;100209.00;;;;4930532;28;117640;-68
2021/10/31 06:34:35;;;;;;;18.20;13.20;;;10.90;92.50;11.00;100209.00;;;;4946857;28;89471;-68
2021/10/31 06:37:00;;;;;;;23.43;13.40;;;11.00;92.50;11.00;100210.00;;;;4935191;28;88052;-67
2021/10/31 06:39:26;;;;;;;25.10;13.87;;;11.00;92.60;11.00;100216.00;;;;4948572;28;108180;-68
2021/10/31 06:41:51;;;;;;;19.33;13.30;;;11.00;92.50;11.00;100195.00;;;;4934574;28;112786;-67
2021/10/31 06:44:17;;;;;;;20.87;14.07;;;11.00;92.60;11.00;100199.00;;;;4933542;28;116465;-69
2021/10/31 06:46:43;;;;;;;17.97;12.37;;;11.00;92.70;11.10;100208.00;;;;4950063;28;100097;-67
2021/10/31 06:49:10;;;;;;;22.33;12.47;;;11.00;92.70;11.20;100219.00;;;;4934110;28;109933;-68
2021/10/31 06:51:36;;;;;;;19.47;13.33;;;11.10;92.70;11.20;100213.00;;;;4934855;28;88225;-67
2021/10/31 06:54:01;;;;;;;16.53;12.37;;;11.20;92.60;11.30;100222.00;;;;4933223;28;118032;-68
2021/10/31 06:56:27;;;;;;;18.37;12.13;;;11.20;92.40;11.40;100223.00;;;;4949732;28;88128;-67
2021/10/31 06:58:53;;;;;;;20.30;13.70;;;11.30;92.30;11.50;100219.00;;;;4949391;28;88148;-68
2021/10/31 07:01:20;;;;;;;21.50;13.23;;;11.40;92.10;11.50;100224.00;;;;4933430;28;117801;-68
2021/10/31 07:03:48;;;;;;;17.07;12.00;;;11.40;91.90;11.60;100227.00;;;;4934415;28;88812;-67
2021/10/31 07:06:15;;;;;;;17.87;12.30;;;11.50;91.80;11.60;100221.00;;;;4935214;28;88059;-67
2021/10/31 07:08:42;;;;;;;21.90;12.57;;;11.60;91.70;11.60;100221.00;;;;4934689;28;88017;-67
2021/10/31 07:11:09;;;;;;;14.90;11.93;;;11.60;91.60;11.60;100230.00;;;;4934577;28;91114;-67
2021/10/31 07:13:34;;;;;;;18.03;11.93;;;11.60;91.60;11.60;100238.00;;;;4933670;28;88298;-67
2021/10/31 07:16:00;;;;;;;16.67;10.87;;;11.60;91.50;11.60;100229.00;;;;4935080;28;87779;-68
2021/10/31 07:18:26;;;;;;;19.30;13.03;;;11.60;91.50;11.60;100233.00;;;;4933118;28;95639;-68
2021/10/31 07:20:52;;;;;;;21.07;13.70;;;11.60;91.50;11.60;100230.00;;;;4933088;28;117769;-67
2021/10/31 07:23:18;;;;;;;20.60;13.23;;;11.50;91.40;11.60;100234.00;;;;4933617;28;117819;-69
2021/10/31 07:25:44;;;;;;;17.20;11.50;;;11.60;91.40;11.60;100239.00;;;;4932877;28;113451;-68
2021/10/31 07:28:10;;;;;;;20.80;13.57;;;11.60;91.40;11.70;100246.00;;;;4935170;28;87778;-69
2021/10/31 07:30:35;;;;;;;17.10;12.97;;;11.60;91.30;11.70;100233.00;;;;4934543;28;88067;-69
2021/10/31 07:33:02;;;;;;;17.67;12.60;;;11.60;91.40;11.70;100237.00;;;;4932616;28;117677;-67
2021/10/31 07:35:30;;;;;;;17.13;12.70;;;11.60;91.30;11.70;100236.00;;;;4935012;28;87162;-67
2021/10/31 07:37:56;;;;;;;19.07;13.13;;;11.70;91.30;11.70;100230.00;;;;4934269;28;87572;-67
2021/10/31 07:40:23;;;;;;;23.37;14.10;;;11.70;91.30;11.80;100230.00;;;;4948348;28;97278;-67
2021/10/31 07:42:50;;;;;;;17.77;12.13;;;11.70;91.20;11.90;100242.00;;;;4948142;28;88842;-68
2021/10/31 07:45:17;;;;;;;22.03;12.97;;;11.70;91.20;12.00;100244.00;;;;4933216;28;92592;-67
2021/10/31 07:47:43;;;;;;;20.33;11.63;;;11.90;91.10;12.20;100246.00;;;;4931733;28;88852;-67
2021/10/31 07:50:09;;;;;;;17.40;11.00;;;12.10;90.50;12.40;100249.00;;;;4925790;28;88624;-67
2021/10/31 07:52:43;;;;;;;14.10;10.83;;;12.30;90.30;12.50;100236.00;;;;4933943;28;88438;-67
2021/10/31 07:55:11;;;;;;;14.03;11.23;;;12.40;89.40;12.70;100238.00;;;;4934308;28;88016;-67
2021/10/31 07:57:37;;;;;;;17.03;11.93;;;12.60;88.40;13.00;100237.00;;;;4933897;28;87724;-67
2021/10/31 08:00:05;;;;;;;15.73;11.13;;;12.80;87.70;13.20;100236.00;;;;4934904;28;88662;-67
2021/10/31 08:02:30;;;;;;;15.53;10.73;;;13.00;86.60;13.40;100239.00;;;;4933675;28;88174;-67
2021/10/31 08:04:56;;;;;;;19.50;11.67;;;13.20;85.60;13.60;100236.00;;;;4932268;28;114038;-67
2021/10/31 08:07:28;;;;;;;14.57;10.03;;;13.40;84.30;13.80;100229.00;;;;4932141;28;109897;-67
2021/10/31 08:09:55;;;;;;;18.63;10.50;;;13.60;82.70;14.00;100228.00;;;;4934210;28;88938;-67
2021/10/31 08:12:20;;;;;;;17.03;10.40;;;13.80;81.60;14.10;100244.00;;;;4933476;28;88383;-66
2021/10/31 08:14:46;;;;;;;17.23;12.07;;;14.00;80.50;14.20;100228.00;;;;4933775;28;87927;-66
2021/10/31 08:17:12;;;;;;;18.53;11.40;;;14.10;78.10;14.20;100220.00;;;;4932450;28;108609;-67
2021/10/31 08:19:37;;;;;;;22.53;13.20;;;14.10;77.80;14.20;100220.00;;;;4931903;28;119343;-68
2021/10/31 08:22:03;;;;;;;15.30;11.30;;;14.10;77.50;14.20;100228.00;;;;4931748;28;118969;-68
2021/10/31 08:24:29;;;;;;;16.87;11.40;;;14.10;77.50;14.20;100231.00;;;;4947730;28;99550;-67
2021/10/31 08:26:54;;;;;;;17.07;11.90;;;14.10;77.40;14.30;100221.00;;;;4933267;28;108902;-67
2021/10/31 08:29:22;;;;;;;17.80;12.00;;;14.10;77.30;14.40;100218.00;;;;4932634;28;111965;-67
2021/10/31 08:31:51;;;;;;;14.40;10.57;;;14.20;77.20;14.60;100235.00;;;;4933233;28;89156;-67
2021/10/31 08:34:17;;;;;;;21.33;11.73;;;14.40;77.10;14.70;100231.00;;;;4933391;28;87976;-69
2021/10/31 08:36:43;;;;;;;16.47;11.10;;;14.50;76.20;14.70;100220.00;;;;4934066;28;88701;-67
2021/10/31 08:39:08;;;;;;;21.43;12.13;;;14.60;75.60;14.70;100214.00;;;;4932745;28;88662;-68
2021/10/31 08:41:35;;;;;;;15.90;10.50;;;14.60;75.10;14.70;100222.00;;;;4931845;28;117701;-68
2021/10/31 08:44:01;;;;;;;15.43;11.60;;;14.60;75.00;14.70;100230.00;;;;4933446;28;87926;-68
2021/10/31 08:46:28;;;;;;;21.33;13.03;;;14.60;75.40;14.80;100225.00;;;;4933754;28;87674;-68
2021/10/31 08:48:54;;;;;;;19.23;11.10;;;14.60;75.10;14.90;100221.00;;;;4933314;28;87349;-68
2021/10/31 08:51:22;;;;;;;18.77;12.73;;;14.70;75.00;15.10;100223.00;;;;4932709;28;106509;-66
2021/10/31 08:53:48;;;;;;;23.53;12.40;;;14.90;74.50;15.30;100218.00;;;;4933533;28;87810;-68
2021/10/31 08:56:14;;;;;;;18.25;11.15;;;15.00;74.10;15.40;100207.00;;;;4931279;28;108526;-66
2021/10/31 08:58:40;;;;;;;17.93;10.90;;;15.20;73.10;15.50;100210.00;;;;4932299;28;88465;-69
2021/10/31 09:01:07;;;;;;;14.63;11.20;;;15.30;72.50;15.70;100209.00;;;;4932933;28;91936;-70
2021/10/31 09:03:32;;;;;;;16.43;12.00;;;15.40;72.40;15.80;100208.00;;;;4932635;28;89252;-71
2021/10/31 09:05:58;;;;;;;17.50;10.77;;;15.60;71.80;16.10;100207.00;;;;4933160;28;87720;-72
2021/10/31 09:08:24;;;;;;;18.48;10.02;;;15.80;71.80;16.30;100205.00;;;;4929871;28;90061;-71
2021/10/31 09:10:52;;;;;;;16.48;10.82;;;16.00;71.00;16.60;100202.00;;;;4932875;28;100656;-71
2021/10/31 09:13:22;;;;;;;17.70;10.18;;;16.30;71.10;16.80;100194.00;;;;4933091;28;87115;-71
2021/10/31 09:15:50;;;;;;;16.60;9.90;;;16.50;69.90;16.90;100204.00;;;;4932047;28;87625;-71
2021/10/31 09:18:16;;;;;;;14.02;10.75;;;16.70;68.90;17.10;100182.00;;;;4946635;28;89604;-70
2021/10/31 09:20:41;;;;;;;13.93;8.57;;;16.80;68.70;17.20;100188.00;;;;4931255;28;116938;-70
2021/10/31 09:23:08;;;;;;;16.70;9.95;;;17.00;67.20;17.30;100188.00;;;;4932395;28;101851;-72
2021/10/31 09:25:34;;;;;;;23.70;13.10;;;17.10;66.80;17.40;100184.00;;;;4933148;28;87925;-72
2021/10/31 09:28:01;;;;;;;15.55;9.68;;;17.20;67.10;17.50;100179.00;;;;4932610;28;88119;-70
2021/10/31 09:30:30;;;;;;;12.63;8.93;;;17.30;66.60;17.60;100181.00;;;;4933323;28;88661;-72
2021/10/31 09:32:56;;;;;;;12.88;8.95;;;17.40;65.40;17.50;100182.00;;;;4932178;28;87884;-71
2021/10/31 09:35:27;;;;;;;17.77;9.95;;;17.30;65.50;17.40;100178.00;;;;4932959;28;88128;-71
2021/10/31 09:38:03;;;;;;;15.45;9.43;;;17.30;64.00;17.30;100172.00;;;;4932809;28;87296;-71
2021/10/31 09:40:31;;;;;;;12.75;9.02;;;17.20;64.40;17.20;100169.00;;;;4933187;28;87762;-70
2021/10/31 09:43:00;;;;;;;16.65;9.70;;;17.10;64.50;17.10;100168.00;;;;4932595;28;87971;-70
2021/10/31 09:45:26;;;;;;;12.40;8.25;;;17.00;65.10;17.20;100169.00;;;;4932071;28;88709;-70
2021/10/31 09:47:55;;;;;;;12.55;7.88;;;17.00;65.60;17.30;100177.00;;;;4932568;28;89050;-71
2021/10/31 09:50:24;;;;;;;9.73;7.75;;;17.10;65.10;17.40;100163.00;;;;4931105;28;87926;-73
2021/10/31 09:52:50;;;;;;;12.38;8.93;;;17.20;64.20;17.40;100162.00;;;;4932942;28;88799;-74
2021/10/31 09:55:15;;;;;;;13.13;8.82;;;17.20;63.90;17.50;100160.00;;;;4931112;28;87908;-71
2021/10/31 09:57:41;;;;;;;17.02;10.15;;;17.20;64.00;17.60;100161.00;;;;4931221;28;118422;-71
2021/10/31 10:00:08;;;;;;;12.52;8.57;;;17.30;64.20;17.70;100162.00;;;;4931847;28;88713;-72
2021/10/31 10:02:50;;;;;;;13.88;9.32;;;17.50;62.90;17.70;100153.00;;;;4932419;28;87174;-70
2021/10/31 10:05:28;;;;;;;15.20;8.98;;;17.50;62.50;17.70;100144.00;;;;4932762;28;88197;-71
2021/10/31 10:08:13;;;;;;;15.50;9.43;;;17.50;62.10;17.50;100148.00;;;;4930341;28;90196;-70
2021/10/31 10:10:50;;;;;;;12.70;8.27;;;18.30;62.20;17.40;100149.00;;;;4932033;28;88748;-71
2021/10/31 10:13:26;;;;;;;13.23;8.60;;;17.30;62.00;17.30;100151.00;;;;4932367;28;87795;-71
2021/10/31 10:16:22;;;;;;;13.55;8.18;;;17.20;62.00;17.10;100152.00;;;;4932975;28;87701;-71
2021/10/31 10:18:49;;;;;;;12.80;8.73;;;17.10;61.90;17.10;100145.00;;;;4930025;28;88840;-72
2021/10/31 10:21:20;;;;;;;15.25;8.57;;;16.90;62.60;17.00;100145.00;;;;4932158;28;88636;-71
2021/10/31 10:23:55;;;;;;;12.48;8.55;;;16.90;64.00;17.00;100133.00;;;;4931795;28;87747;-71
2021/10/31 10:26:43;;;;;;;14.32;7.93;;;16.80;63.40;17.00;100125.00;;;;4930671;28;87888;-70
2021/10/31 10:29:09;;;;;;;13.18;9.50;;;16.80;63.70;17.20;100121.00;;;;4932769;28;87289;-70
2021/10/31 10:31:35;;;;;;;12.70;8.75;;;16.90;63.90;17.30;100125.00;;;;4932833;28;87972;-70
2021/10/31 10:34:01;;;;;;;11.55;8.57;;;17.00;64.20;17.50;100126.00;;;;4930149;28;112079;-69
2021/10/31 10:36:27;;;;;;;14.15;9.13;;;17.20;64.30;17.60;100128.00;;;;4931349;28;93355;-69
2021/10/31 10:39:11;;;;;;;12.90;9.13;;;17.50;64.20;17.70;100123.00;;;;4932775;28;88065;-70
2021/10/31 10:41:54;;;;;;;15.18;9.73;;;17.50;63.00;17.80;100120.00;;;;4931873;28;87950;-73